x

Fowey Rock, Fl (fwyf1) Weather Station

3:00pm - Thu 23rd Feb 2017 All times are EST. -5 hours from GMT.

  • Wind
    20mph, 22mph gusts
  • Sea Temp 74°f
  • Air Temp 73°f
  • Sea Pressure 1003.2mb
  • Fowey Rock, Fl
  • Fowey Rock, Fl

More Historic Weather Station data

Upgrade to MSW Pro to gain access to the past 30 days of data for over 8000 Wavebouys and Weather Stations around the globe.

Join Pro

Comparision Forecast

View Surf forecast
   
Thu 02/23 3:00pm 20 22 mph 1003.2mb 74f 73f
2:00pm 18 20 mph 1003.8mb 74f 72f
1:00pm 17 18 mph 1004.6mb 74f 72f
12:00pm 11 14 mph 1005.4mb 74f 71f
11:00am 13 14 mph 1005.9mb 74f 72f
10:00am 13 14 mph 1006.2mb 74f 71f
9:00am 14 16 mph 1005.6mb 74f 70f
8:00am 11 13 mph 1005.5mb 74f 68f
7:00am 9 10 mph 1005mb 74f 68f
6:00am 9
mph
1004.4mb 74f 67f
5:00am 14 16 mph 1004mb 74f 68f
Wed 02/22 5:00am 30 32 mph 1009.6mb 75f 74f
4:00am 28 30 mph 1009.9mb 75f 74f
3:00am 24 28 mph 1010.7mb 75f 74f
2:00am 23 24 mph 1011.7mb 75f 74f
1:00am 21 22 mph 1012.8mb 75f 74f
12:00am 23 24 mph 1013.4mb 75f 74f
Tue 02/21 11:00pm 26 28 mph 1013.7mb 75f 74f
10:00pm 23 26 mph 1014.4mb 75f 74f
9:00pm 21 22 mph 1014.8mb 75f 74f
8:00pm 15 16 mph 1015.6mb 75f 74f
7:00pm 17 18 mph 1015.5mb 75f 74f
6:00pm 18 21 mph 1015.5mb 75f 74f
5:00pm 18 21 mph 1015.4mb 75f 74f
4:00pm 10 11 mph 1016.3mb 76f 74f
3:00pm 11 13 mph 1016.8mb 76f 74f
2:00pm 13 14 mph 1017.2mb 76f 74f
1:00pm 16 17 mph 1017.9mb 76f 74f
12:00pm 17 21 mph 1018.7mb 76f 74f
11:00am 16 17 mph 1019.5mb 76f 74f
10:00am 14 16 mph 1019.7mb 76f 74f
9:00am 15 16 mph 1019.7mb 76f 74f
8:00am 16 18 mph 1019.2mb 76f 74f
7:00am 9 10 mph 1019mb 76f 74f
6:00am 9 10 mph 1018.5mb 76f 73f
5:00am 16 18 mph 1018.1mb 76f 73f
4:00am 15 16 mph 1017.8mb 76f 73f
3:00am 14 15 mph 1018.3mb 76f 73f
2:00am 15 17 mph 1018.3mb 76f 73f
1:00am 18 20 mph 1018.2mb 76f 74f
12:00am 16 17 mph 1018.8mb 76f 74f
Mon 02/20 11:00pm 16 18 mph 1019.4mb 76f 74f
10:00pm 21 23 mph 1019.6mb 76f 74f
9:00pm 18 20 mph 1019.9mb 76f 74f
8:00pm 17 20 mph 1019.8mb 76f 74f
7:00pm 13 14 mph 1020mb 76f 74f
6:00pm 14 16 mph 1019.3mb 77f 74f
5:00pm 15
mph
1019mb 77f 75f
4:00pm 14 16 mph 1018.8mb 77f 74f
3:00pm 13 15 mph 1018.7mb 77f 75f
2:00pm 16 17 mph 1019.1mb 77f 74f
1:00pm 16 17 mph 1020mb 77f 74f
12:00pm 14 16 mph 1020.6mb 77f 74f
11:00am 13 15 mph 1021.1mb 77f 75f
10:00am 14 15 mph 1021.1mb 76f 75f
9:00am 13 15 mph 1020.6mb 76f 75f
8:00am 16 17 mph 1019.7mb 76f 75f
7:00am 15 16 mph 1019mb 76f 75f
6:00am 15 16 mph 1018.6mb 76f 75f
5:00am 15 17 mph 1018.4mb 76f 75f
4:00am 16 17 mph 1018mb 76f 75f
3:00am 15 16 mph 1018.2mb 76f 75f
2:00am 15 16 mph 1018.3mb 76f 75f
1:00am 16 17 mph 1018.6mb 75f 76f
12:00am 18 21 mph 1018.8mb 75f 76f
Sun 02/19 11:00pm 15 16 mph 1019mb 75f 76f
10:00pm 15 16 mph 1019mb 75f 76f